Time;durP1;ratioP1;P1;durP2;ratioP2;P2;SDS_P1;SDS_P2;PMS_P1;PMS_P2;Temp;Humidity;BMP_temperature;BMP_pressure;BME280_temperature;BME280_humidity;BME280_pressure;Samples;Min_cycle;Max_cycle;Signal;HPM_P1;HPM_P2
2022/07/11 00:00:31;;;;;;;0.10;0.10;;;17.60;83.20;;;19.06;70.08;102411.63;2015718;29;20057;-62
2022/07/11 00:01:33;;;;;;;0.20;0.20;;;17.50;83.30;;;19.08;70.08;102412.06;2014820;29;20124;-63
2022/07/11 00:02:38;;;;;;;0.17;0.17;;;17.50;83.30;;;19.07;70.34;102414.03;2015589;29;20049;-61
2022/07/11 00:03:41;;;;;;;0.10;0.10;;;17.50;83.30;;;19.07;70.27;102410.50;2015123;29;20067;-60
2022/07/11 00:04:45;;;;;;;0.10;0.10;;;17.50;83.40;;;19.06;70.46;102406.16;2007999;29;20046;-60
2022/07/11 00:05:48;;;;;;;0.10;0.10;;;17.50;83.50;;;19.07;70.42;102408.56;2015786;29;20071;-60
2022/07/11 00:06:51;;;;;;;0.10;0.10;;;17.50;83.60;;;19.07;70.33;102408.56;2015238;29;20522;-61
2022/07/11 00:07:54;;;;;;;0.10;0.10;;;17.50;83.60;;;19.07;70.73;102414.03;2015011;29;20429;-60
2022/07/11 00:08:57;;;;;;;0.10;0.10;;;17.50;83.70;;;19.05;70.52;102408.13;2015725;29;20053;-60
2022/07/11 00:10:00;;;;;;;0.20;0.20;;;17.50;83.70;;;19.05;70.70;102405.38;2015667;29;20080;-60
2022/07/11 00:11:03;;;;;;;0.13;0.13;;;17.50;83.70;;;19.03;70.75;102407.69;2014889;29;20426;-60
2022/07/11 00:12:10;;;;;;;0.10;0.10;;;17.50;83.70;;;19.03;70.81;102404.94;2015260;29;20069;-61
2022/07/11 00:13:12;;;;;;;0.20;0.20;;;17.50;83.80;;;19.02;70.62;102400.63;2015183;29;20060;-60
2022/07/11 00:14:16;;;;;;;0.10;0.10;;;17.50;83.80;;;19.01;70.94;102409.97;2015080;29;20440;-60
2022/07/11 00:15:19;;;;;;;0.20;0.20;;;17.50;84.00;;;19.01;71.01;102404.50;2014823;29;20496;-61
2022/07/11 00:16:22;;;;;;;0.17;0.17;;;17.50;84.10;;;19.01;71.02;102406.47;2015858;29;20060;-61
2022/07/11 00:17:25;;;;;;;0.20;0.20;;;17.50;84.20;;;19.02;70.96;102406.13;2015689;29;20524;-61
2022/07/11 00:18:28;;;;;;;0.20;0.20;;;17.50;84.20;;;19.01;71.25;102407.25;2015325;29;20099;-61
2022/07/11 00:19:31;;;;;;;0.10;0.10;;;17.50;84.20;;;19.03;71.26;102406.88;2015908;29;20052;-60
2022/07/11 00:20:34;;;;;;;0.20;0.20;;;17.60;84.10;;;19.02;71.04;102400.63;2014595;29;20532;-61
2022/07/11 00:21:37;;;;;;;0.20;0.20;;;17.50;84.10;;;19.02;71.18;102399.84;2015263;29;20059;-61
2022/07/11 00:22:40;;;;;;;0.20;0.20;;;17.50;84.20;;;19.02;71.04;102400.63;2015650;29;20085;-61
2022/07/11 00:23:43;;;;;;;0.10;0.10;;;17.50;84.80;;;19.00;71.30;102397.47;2014725;29;20136;-61
2022/07/11 00:24:47;;;;;;;0.20;0.20;;;17.60;84.30;;;19.04;71.13;102392.06;2016036;29;20055;-61
2022/07/11 00:25:50;;;;;;;0.10;0.10;;;17.60;84.30;;;19.03;71.43;102390.47;2014962;29;20517;-61
2022/07/11 00:26:53;;;;;;;0.10;0.10;;;17.60;84.40;;;19.06;71.42;102396.00;2020847;29;20127;-60
2022/07/11 00:27:57;;;;;;;0.17;0.17;;;17.60;84.40;;;19.07;71.20;102394.06;2021858;29;20096;-60
2022/07/11 00:29:00;;;;;;;0.15;0.15;;;17.50;84.40;;;19.07;70.96;102392.16;2014541;29;20064;-60
2022/07/11 00:30:05;;;;;;;0.20;0.20;;;17.50;84.40;;;19.07;71.25;102389.41;2014764;29;20056;-60
2022/07/11 00:31:08;;;;;;;0.10;0.10;;;17.50;84.50;;;19.07;71.28;102389.41;2015940;29;20674;-60
2022/07/11 00:32:11;;;;;;;0.20;0.20;;;17.50;84.50;;;19.07;71.18;102385.88;2015220;29;20099;-60
2022/07/11 00:33:14;;;;;;;0.10;0.10;;;17.50;84.40;;;19.04;71.28;102392.84;2015588;29;20111;-60
2022/07/11 00:34:17;;;;;;;0.10;0.10;;;17.50;84.40;;;19.01;71.46;102393.56;2014267;29;20053;-61
2022/07/11 00:35:20;;;;;;;0.10;0.10;;;17.50;84.50;;;19.01;71.28;102390.81;2015326;29;20088;-60
2022/07/11 00:36:23;;;;;;;0.10;0.10;;;17.50;84.50;;;19.02;71.55;102388.88;2015154;29;20049;-61
2022/07/11 00:37:26;;;;;;;0.10;0.10;;;17.50;84.50;;;19.01;71.47;102399.03;2015441;29;20060;-60
2022/07/11 00:38:29;;;;;;;0.10;0.10;;;17.50;85.20;;;19.02;71.46;102395.16;2015200;29;20053;-61
2022/07/11 00:39:32;;;;;;;0.20;0.20;;;17.50;84.70;;;19.05;71.55;102393.63;2015138;29;20127;-62
2022/07/11 00:40:36;;;;;;;0.20;0.20;;;17.50;84.70;;;19.05;71.09;102396.38;2005769;29;20061;-60
2022/07/11 00:41:38;;;;;;;0.15;0.15;;;17.50;84.70;;;19.03;71.30;102396.75;2006269;29;20520;-60
2022/07/11 00:42:42;;;;;;;0.20;0.20;;;17.50;84.70;;;19.02;71.45;102388.88;2014088;29;20144;-60
2022/07/11 00:43:53;;;;;;;0.17;0.17;;;17.50;84.70;;;18.91;71.31;102377.72;2015541;29;20083;-60
2022/07/11 00:44:56;;;;;;;0.10;0.10;;;17.50;84.70;;;19.02;71.27;102384.22;2015598;29;20045;-60
2022/07/11 00:46:00;;;;;;;0.20;0.20;;;17.50;84.70;;;19.02;71.42;102383.41;2014289;29;20520;-60
2022/07/11 00:47:04;;;;;;;0.10;0.10;;;17.50;84.70;;;19.00;71.22;102386.50;2015150;29;20501;-60
2022/07/11 00:48:07;;;;;;;0.17;0.17;;;17.50;84.70;;;19.01;71.56;102385.34;2015253;29;20140;-61
2022/07/11 00:49:10;;;;;;;0.20;0.20;;;17.50;84.70;;;19.00;71.38;102381.03;2015312;29;20068;-60
2022/07/11 00:50:14;;;;;;;0.20;0.20;;;17.50;84.80;;;19.02;71.32;102381.47;2015723;29;20057;-60
2022/07/11 00:51:20;;;;;;;0.20;0.20;;;17.50;84.70;;;19.01;71.33;102393.56;2014109;29;20157;-60
2022/07/11 00:52:23;;;;;;;0.10;0.10;;;17.50;84.70;;;19.00;71.25;102377.50;2015017;29;20049;-61
2022/07/11 00:53:27;;;;;;;0.10;0.10;;;17.40;84.70;;;18.99;71.57;102376.72;2015473;29;20524;-62
2022/07/11 00:54:30;;;;;;;0.20;0.20;;;17.40;85.40;;;18.98;71.61;102383.34;2015704;29;20664;-61
2022/07/11 00:55:34;;;;;;;0.20;0.20;;;17.40;84.90;;;18.95;71.44;102377.78;2016828;29;20526;-61
2022/07/11 00:56:37;;;;;;;0.20;0.20;;;17.40;84.90;;;18.96;71.74;102374.69;2016059;29;20068;-61
2022/07/11 00:57:41;;;;;;;0.17;0.17;;;17.50;85.00;;;18.95;71.63;102367.63;2015740;29;20084;-60
2022/07/11 00:58:44;;;;;;;0.10;0.10;;;17.40;84.90;;;18.97;71.53;102373.53;2016708;29;20442;-61
2022/07/11 00:59:49;;;;;;;0.20;0.20;;;17.50;85.00;;;18.98;71.61;102375.13;2017241;29;20049;-60
2022/07/11 01:00:52;;;;;;;0.10;0.10;;;17.50;85.00;;;18.99;71.58;102379.47;2016903;29;20421;-61
2022/07/11 01:01:55;;;;;;;0.20;0.20;;;17.50;84.90;;;19.00;71.67;102377.50;2016562;29;20053;-60
2022/07/11 01:02:58;;;;;;;0.10;0.10;;;17.50;85.00;;;19.00;71.47;102372.81;2015783;29;20064;-60
2022/07/11 01:04:03;;;;;;;0.20;0.20;;;17.50;84.90;;;19.00;71.57;102375.56;2016979;29;20057;-60
2022/07/11 01:05:07;;;;;;;0.10;0.10;;;17.50;85.00;;;19.01;71.55;102374.41;2016565;29;20056;-60
2022/07/11 01:06:11;;;;;;;0.20;0.20;;;17.50;84.90;;;19.02;71.53;102373.25;2016329;29;20545;-60
2022/07/11 01:07:13;;;;;;;0.10;0.10;;;17.50;84.90;;;19.02;71.39;102361.50;2017188;29;20056;-61
2022/07/11 01:08:17;;;;;;;0.10;0.10;;;17.50;84.90;;;19.03;71.55;102374.84;2016291;29;20422;-61
2022/07/11 01:09:19;;;;;;;0.10;0.10;;;17.50;84.90;;;19.03;71.61;102372.09;2016614;29;20057;-61
2022/07/11 01:10:24;;;;;;;0.20;0.20;;;17.50;84.90;;;19.04;71.57;102370.94;2016060;29;20056;-61
2022/07/11 01:11:27;;;;;;;0.20;0.20;;;17.50;84.90;;;19.04;71.30;102370.16;2016082;29;20503;-61
2022/07/11 01:12:31;;;;;;;0.20;0.20;;;17.50;85.00;;;19.05;71.47;102364.31;2017054;29;20132;-60
2022/07/11 01:13:33;;;;;;;0.17;0.17;;;17.50;84.90;;;19.06;71.38;102374.13;2016133;29;20422;-61
2022/07/11 01:14:36;;;;;;;0.10;0.10;;;17.50;85.00;;;19.05;71.36;102364.31;2016082;29;20053;-60
2022/07/11 01:15:40;;;;;;;0.10;0.10;;;17.50;84.90;;;19.03;71.22;102369.34;2016618;29;20092;-60
2022/07/11 01:16:43;;;;;;;0.10;0.10;;;17.50;84.90;;;19.05;71.39;102382.69;2022385;29;20047;-61
2022/07/11 01:17:46;;;;;;;0.10;0.10;;;17.50;84.90;;;19.05;71.31;102382.69;2023193;29;20060;-61
2022/07/11 01:18:52;;;;;;;0.20;0.20;;;17.50;85.00;;;19.04;71.49;102379.16;2016112;29;20061;-61
2022/07/11 01:19:54;;;;;;;0.20;0.20;;;17.50;85.00;;;19.00;71.35;102375.56;2016882;29;20557;-60
2022/07/11 01:20:57;;;;;;;0.20;0.20;;;17.50;84.90;;;18.99;71.41;102371.25;2016569;29;20139;-60
2022/07/11 01:22:05;;;;;;;0.20;0.20;;;17.40;84.80;;;18.99;71.26;102373.97;2016268;29;20052;-60
2022/07/11 01:23:09;;;;;;;0.20;0.20;;;17.50;84.90;;;18.98;71.41;102372.38;2017046;29;20422;-60
2022/07/11 01:24:12;;;;;;;0.20;0.20;;;17.40;85.50;;;18.98;71.32;102371.59;2016591;29;20084;-60
2022/07/11 01:25:30;;;;;;;0.20;0.20;;;17.40;84.90;;;18.96;71.46;102377.41;2016248;29;20144;-60
2022/07/11 01:26:33;;;;;;;0.20;0.20;;;17.40;84.90;;;18.95;71.29;102370.38;2016673;29;20045;-61
2022/07/11 01:27:36;;;;;;;0.20;0.20;;;17.40;84.90;;;18.94;71.29;102366.06;2016651;29;20551;-60
2022/07/11 01:28:39;;;;;;;0.20;0.20;;;17.40;84.90;;;18.93;71.28;102372.66;2016600;29;20053;-60
2022/07/11 01:29:43;;;;;;;0.20;0.20;;;17.40;84.90;;;18.93;71.42;102375.41;2016360;29;20060;-60
2022/07/11 01:30:45;;;;;;;0.20;0.20;;;17.40;84.80;;;18.93;71.34;102369.94;2016198;29;20053;-63
2022/07/11 01:31:49;;;;;;;0.17;0.17;;;17.40;84.90;;;18.92;71.28;102373.03;2017637;29;20079;-61
2022/07/11 01:32:52;;;;;;;0.20;0.20;;;17.40;84.90;;;18.89;71.61;102371.81;2015973;29;20064;-60
2022/07/11 01:33:55;;;;;;;0.20;0.20;;;17.40;84.90;;;18.89;71.38;102371.81;2016170;29;20081;-64
2022/07/11 01:34:57;;;;;;;0.20;0.20;;;17.40;84.80;;;18.88;71.53;102370.25;2016883;29;20516;-60
2022/07/11 01:36:02;;;;;;;0.20;0.20;;;17.40;84.80;;;18.88;71.43;102363.97;2015773;29;20140;-60
2022/07/11 01:37:04;;;;;;;0.20;0.20;;;17.40;84.90;;;18.89;71.57;102369.06;2016592;29;20818;-61
2022/07/11 01:38:09;;;;;;;0.20;0.20;;;17.40;84.90;;;18.88;71.38;102367.50;2016919;29;20083;-61
2022/07/11 01:39:12;;;;;;;0.20;0.20;;;17.40;84.90;;;18.88;71.69;102363.97;2016417;29;20111;-62
2022/07/11 01:40:15;;;;;;;0.20;0.20;;;17.40;84.90;;;18.84;71.81;102372.09;2016283;29;20057;-60
2022/07/11 01:41:18;;;;;;;0.20;0.20;;;17.40;84.80;;;18.85;71.67;102368.19;2016474;29;20057;-60
2022/07/11 01:42:20;;;;;;;0.13;0.13;;;17.40;84.80;;;18.86;71.62;102369.00;2015602;29;20056;-61
2022/07/11 01:43:24;;;;;;;0.20;0.20;;;17.40;84.70;;;18.85;71.76;102368.19;2016776;29;20056;-60
2022/07/11 01:44:27;;;;;;;0.20;0.20;;;17.40;84.70;;;18.83;71.64;102376.00;2015910;29;20087;-64
2022/07/11 01:45:31;;;;;;;0.20;0.20;;;17.40;84.70;;;18.85;71.51;102379.13;2016698;29;20533;-60
2022/07/11 01:46:33;;;;;;;0.20;0.20;;;17.40;85.30;;;18.85;71.54;102373.66;2016078;29;20465;-61
2022/07/11 01:47:37;;;;;;;0.20;0.20;;;17.40;84.70;;;18.86;71.60;102375.28;2016526;29;20398;-60
2022/07/11 01:48:40;;;;;;;0.20;0.20;;;17.40;84.70;;;18.87;71.76;102376.84;2016646;29;20505;-60
2022/07/11 01:49:43;;;;;;;0.20;0.20;;;17.40;84.70;;;18.87;71.56;102381.50;2015505;29;20057;-60
2022/07/11 01:50:46;;;;;;;0.20;0.20;;;17.40;84.80;;;18.88;71.48;102378.44;2016798;29;20056;-60
2022/07/11 01:51:50;;;;;;;0.20;0.20;;;17.40;84.80;;;18.88;71.56;102378.44;2015984;29;20061;-60
2022/07/11 01:52:52;;;;;;;0.20;0.20;;;17.40;84.90;;;18.88;71.41;102375.72;2015626;29;20188;-60
2022/07/11 01:53:57;;;;;;;0.20;0.20;;;17.40;84.90;;;18.85;71.83;102373.66;2016811;29;20425;-61
2022/07/11 01:54:59;;;;;;;0.20;0.20;;;17.40;85.00;;;18.86;71.80;102369.00;2016086;29;20052;-60
2022/07/11 01:56:03;;;;;;;0.20;0.20;;;17.30;84.90;;;18.85;71.93;102379.13;2015744;29;20068;-62
2022/07/11 01:57:26;;;;;;;0.20;0.20;;;17.30;85.00;;;18.85;71.67;102367.41;2016389;29;20469;-62
2022/07/11 01:58:31;;;;;;;0.20;0.20;;;17.30;85.00;;;18.83;71.88;102376.00;2015519;29;20588;-60
2022/07/11 01:59:37;;;;;;;0.20;0.20;;;17.30;85.70;;;18.82;71.66;102374.38;2016206;29;20064;-60
2022/07/11 02:00:44;;;;;;;0.20;0.20;;;17.30;85.20;;;18.83;71.75;102372.44;2015887;29;20060;-60
2022/07/11 02:01:50;;;;;;;0.10;0.10;;;17.30;85.30;;;18.83;71.89;102370.53;2016021;29;20124;-62
2022/07/11 02:02:54;;;;;;;0.17;0.17;;;17.30;85.30;;;18.82;72.09;102373.63;2016915;29;20136;-60
2022/07/11 02:03:58;;;;;;;0.20;0.20;;;17.30;85.30;;;18.80;71.86;102376.72;2016183;29;20068;-60
2022/07/11 02:05:00;;;;;;;0.20;0.20;;;17.30;85.30;;;18.79;72.00;102379.81;2016051;29;20521;-60
2022/07/11 02:06:04;;;;;;;0.20;0.20;;;17.30;85.30;;;18.77;72.09;102376.63;2014810;29;20061;-60
2022/07/11 02:07:07;;;;;;;0.20;0.20;;;17.30;85.40;;;18.75;72.01;102371.50;2022357;29;20053;-60
2022/07/11 02:08:13;;;;;;;0.13;0.13;;;17.20;85.40;;;18.75;72.06;102379.72;2022511;29;20813;-60
2022/07/11 02:09:17;;;;;;;0.10;0.10;;;17.30;85.60;;;18.75;72.16;102374.25;2016465;29;20458;-60
2022/07/11 02:10:20;;;;;;;0.10;0.10;;;17.20;85.70;;;18.73;72.30;102376.53;2015728;29;20064;-68
2022/07/11 02:11:23;;;;;;;0.20;0.20;;;17.20;85.60;;;18.71;72.42;102373.38;2015680;29;20094;-60
2022/07/11 02:12:26;;;;;;;0.20;0.20;;;17.20;85.70;;;18.71;72.57;102378.06;2015256;29;20088;-60
2022/07/11 02:13:29;;;;;;;0.20;0.20;;;17.20;85.80;;;18.71;72.50;102375.34;2016049;29;20271;-59
2022/07/11 02:14:32;;;;;;;0.20;0.20;;;17.20;85.90;;;18.70;72.93;102377.25;2015929;29;20529;-60
2022/07/11 02:15:35;;;;;;;0.10;0.10;;;17.20;86.00;;;18.69;72.55;102374.88;2016239;29;20052;-60
2022/07/11 02:16:37;;;;;;;0.20;0.20;;;17.20;86.10;;;18.71;72.78;102375.34;2014609;29;20056;-60
2022/07/11 02:17:41;;;;;;;0.10;0.10;;;17.20;86.20;;;18.67;72.66;102377.97;2014785;29;20128;-59
2022/07/11 02:18:43;;;;;;;0.10;0.10;;;17.20;86.20;;;18.67;73.04;102375.25;2014317;29;20061;-60
2022/07/11 02:19:47;;;;;;;0.13;0.13;;;17.20;86.20;;;18.67;72.76;102372.50;2015542;29;20064;-60
2022/07/11 02:20:49;;;;;;;0.10;0.10;;;17.20;86.20;;;18.68;72.88;102373.31;2016006;29;20069;-59
2022/07/11 02:21:52;;;;;;;0.10;0.10;;;17.20;86.30;;;18.68;72.89;102368.63;2015677;29;20056;-60
2022/07/11 02:22:56;;;;;;;0.10;0.10;;;17.20;86.20;;;18.71;72.94;102367.91;2014840;29;20057;-60
2022/07/11 02:23:59;;;;;;;0.20;0.20;;;17.20;86.30;;;18.70;72.88;102360.03;2015821;29;20060;-60
2022/07/11 02:25:04;;;;;;;0.20;0.20;;;17.30;86.40;;;18.74;72.97;102367.19;2015583;29;20116;-60
2022/07/11 02:26:08;;;;;;;0.10;0.10;;;17.30;86.60;;;18.76;72.96;102372.28;2015973;29;20060;-60
2022/07/11 02:27:10;;;;;;;0.10;0.10;;;17.30;86.60;;;18.79;72.98;102374.34;2021447;29;20064;-60
2022/07/11 02:28:14;;;;;;;0.20;0.20;;;17.30;86.60;;;18.79;72.91;102372.38;2021801;29;20099;-60
2022/07/11 02:29:22;;;;;;;0.10;0.10;;;17.30;86.60;;;18.81;72.88;102363.81;2015878;29;20061;-60
2022/07/11 02:30:26;;;;;;;0.10;0.10;;;17.30;86.60;;;18.82;72.99;102368.91;2015203;29;20064;-60
2022/07/11 02:31:28;;;;;;;0.10;0.10;;;17.30;86.60;;;18.82;72.76;102366.19;2015545;29;20128;-60
2022/07/11 02:32:32;;;;;;;0.10;0.10;;;17.30;86.60;;;18.82;73.00;102362.66;2017091;29;20477;-61
2022/07/11 02:33:34;;;;;;;0.10;0.10;;;17.30;86.50;;;18.81;72.96;102367.34;2015670;29;20077;-62
2022/07/11 02:34:38;;;;;;;0.20;0.20;;;17.30;86.50;;;18.79;72.73;102363.38;2015640;29;20568;-59
2022/07/11 02:35:41;;;;;;;0.20;0.20;;;17.30;86.50;;;18.76;73.10;102359.41;2015680;29;20425;-60
2022/07/11 02:36:45;;;;;;;0.10;0.10;;;17.30;86.60;;;18.75;73.15;102357.84;2008383;29;20438;-60
2022/07/11 02:37:48;;;;;;;0.20;0.20;;;17.30;86.60;;;18.72;73.04;102361.28;2013850;29;20422;-60
2022/07/11 02:38:51;;;;;;;0.10;0.10;;;17.30;86.60;;;18.72;73.23;102364.03;2015591;29;20060;-60
2022/07/11 02:39:54;;;;;;;0.10;0.10;;;17.20;86.60;;;18.73;73.24;102357.38;2015305;29;20417;-61
2022/07/11 02:40:59;;;;;;;0.13;0.13;;;17.20;86.60;;;18.74;73.35;102355.47;2016071;29;20418;-62
2022/07/11 02:42:02;;;;;;;0.10;0.10;;;17.20;86.70;;;18.75;73.13;102363.31;2015370;29;20064;-60
2022/07/11 02:43:05;;;;;;;0.20;0.20;;;17.20;86.80;;;18.72;73.08;102352.28;2015567;29;20486;-60
2022/07/11 02:44:08;;;;;;;0.20;0.20;;;17.20;86.70;;;18.76;73.00;102356.66;2015859;29;20080;-60
2022/07/11 02:45:12;;;;;;;0.10;0.10;;;17.30;86.80;;;18.75;73.29;102360.56;2015442;29;20512;-60
2022/07/11 02:46:14;;;;;;;0.10;0.10;;;17.30;86.90;;;18.77;73.15;102357.47;2015520;29;20059;-60
2022/07/11 02:47:18;;;;;;;0.20;0.20;;;17.30;86.80;;;18.77;73.29;102365.69;2015584;29;20057;-61
2022/07/11 02:48:21;;;;;;;0.20;0.20;;;17.30;86.80;;;18.76;72.99;102362.16;2015679;29;20514;-61
2022/07/11 02:49:23;;;;;;;0.20;0.20;;;17.30;86.80;;;18.77;73.00;102361.00;2014801;29;20084;-60
2022/07/11 02:50:27;;;;;;;0.10;0.10;;;17.30;86.90;;;18.77;73.22;102358.28;2014738;29;20056;-60
2022/07/11 02:51:29;;;;;;;0.20;0.20;;;17.30;86.80;;;18.79;73.01;102350.47;2015961;29;20505;-60
2022/07/11 02:52:32;;;;;;;0.20;0.20;;;17.30;86.80;;;18.80;73.12;102364.97;2014408;29;20089;-61
2022/07/11 02:53:36;;;;;;;0.10;0.10;;;17.30;86.80;;;18.78;72.95;102356.31;2013774;29;20636;-63
2022/07/11 02:54:38;;;;;;;0.10;0.10;;;17.30;86.80;;;18.78;73.15;102359.03;2015626;29;20159;-60
2022/07/11 02:55:41;;;;;;;0.10;0.10;;;17.30;86.80;;;18.79;73.22;102361.41;2015443;29;20048;-60
2022/07/11 02:56:45;;;;;;;0.20;0.20;;;17.20;86.80;;;18.79;72.90;102364.16;2014616;29;20057;-60
2022/07/11 02:57:49;;;;;;;0.15;0.15;;;17.20;86.70;;;18.78;73.19;102357.13;2016097;29;20079;-60
2022/07/11 02:58:51;;;;;;;0.10;0.10;;;17.20;86.80;;;18.76;73.00;102359.41;2015594;29;20593;-60
2022/07/11 02:59:55;;;;;;;0.10;0.10;;;17.20;86.80;;;18.75;73.26;102357.03;2014712;29;20053;-60
2022/07/11 03:00:57;;;;;;;0.13;0.13;;;17.20;86.80;;;18.71;73.27;102354.22;2015482;29;20056;-61
2022/07/11 03:02:04;;;;;;;0.10;0.10;;;17.20;86.90;;;18.74;72.89;102361.69;2008194;29;20064;-60
2022/07/11 03:03:07;;;;;;;0.10;0.10;;;17.20;86.80;;;18.72;73.32;102361.28;2008544;29;20520;-62
2022/07/11 03:04:10;;;;;;;0.17;0.17;;;17.20;86.80;;;18.61;73.22;102346.59;2021912;29;20100;-60
2022/07/11 03:05:13;;;;;;;0.10;0.10;;;17.20;86.70;;;18.70;73.01;102360.84;2020597;29;20071;-60
2022/07/11 03:06:16;;;;;;;0.20;0.20;;;17.20;86.70;;;18.71;72.98;102365.16;2015802;29;20091;-60
2022/07/11 03:07:19;;;;;;;0.10;0.10;;;17.20;86.60;;;18.72;72.89;102366.75;2015847;29;20541;-60
2022/07/11 03:08:23;;;;;;;0.20;0.20;;;17.20;86.60;;;18.71;73.15;102367.13;2014791;29;20520;-62
2022/07/11 03:09:25;;;;;;;0.10;0.10;;;17.20;86.60;;;18.61;73.19;102351.25;2015246;29;20056;-59
2022/07/11 03:10:29;;;;;;;0.10;0.10;;;17.20;86.60;;;18.71;72.86;102367.91;2015186;29;20398;-60
2022/07/11 03:11:31;;;;;;;0.10;0.10;;;17.20;86.60;;;18.72;73.06;102363.22;2015329;29;20588;-62
2022/07/11 03:12:36;;;;;;;0.10;0.10;;;17.20;86.60;;;18.72;73.02;102368.69;2015830;29;20057;-60
2022/07/11 03:13:39;;;;;;;0.20;0.20;;;17.20;86.60;;;18.70;73.17;102371.78;2015650;29;20057;-60
2022/07/11 03:14:43;;;;;;;0.20;0.20;;;17.20;86.60;;;18.68;72.98;102373.31;2014420;29;20516;-60
2022/07/11 03:15:45;;;;;;;0.20;0.20;;;17.10;86.50;;;18.66;72.90;102367.41;2014680;29;20544;-61
2022/07/11 03:16:49;;;;;;;0.20;0.20;;;17.20;86.50;;;18.62;72.94;102371.97;2014465;29;20136;-60
2022/07/11 03:17:51;;;;;;;0.10;0.10;;;17.10;86.40;;;18.59;73.08;102370.78;2016195;29;20079;-61
2022/07/11 03:18:55;;;;;;;0.30;0.30;;;17.10;86.50;;;18.58;73.13;102371.94;2015210;29;20077;-60
2022/07/11 03:19:58;;;;;;;0.22;0.22;;;17.10;86.60;;;18.56;73.35;102370.69;2015155;29;20429;-60
2022/07/11 03:21:01;;;;;;;0.20;0.20;;;17.10;86.80;;;18.54;73.38;102368.31;2015546;29;20068;-60
2022/07/11 03:22:04;;;;;;;0.20;0.20;;;17.00;86.80;;;18.53;73.29;102369.47;2014392;29;20069;-60
2022/07/11 03:23:07;;;;;;;0.20;0.20;;;17.00;86.80;;;18.51;73.58;102363.56;2015854;29;20049;-60
2022/07/11 03:24:10;;;;;;;0.20;0.20;;;17.00;87.00;;;18.50;73.64;102377.59;2015539;29;20821;-61
2022/07/11 03:25:13;;;;;;;0.20;0.20;;;17.00;87.10;;;18.48;73.45;102372.47;2014266;29;20140;-60
2022/07/11 03:26:16;;;;;;;0.22;0.22;;;17.00;87.10;;;18.38;73.58;102359.34;2015325;29;20057;-60
2022/07/11 03:27:22;;;;;;;0.30;0.30;;;17.00;87.20;;;18.46;73.69;102372.03;2014573;29;20135;-60
2022/07/11 03:28:25;;;;;;;0.20;0.20;;;16.90;87.30;;;18.46;73.86;102382.16;2015761;29;20057;-60
2022/07/11 03:29:29;;;;;;;0.20;0.20;;;17.00;87.30;;;18.45;73.62;102377.84;2015345;29;20057;-60
2022/07/11 03:30:31;;;;;;;0.28;0.28;;;16.90;87.40;;;18.44;74.04;102371.59;2015360;29;20088;-60
2022/07/11 03:31:35;;;;;;;0.20;0.20;;;16.90;87.60;;;18.45;74.18;102372.38;2015053;29;20064;-60
2022/07/11 03:32:38;;;;;;;0.10;0.10;;;16.90;87.80;;;18.44;74.03;102374.31;2015375;29;20056;-60
2022/07/11 03:33:41;;;;;;;0.20;0.20;;;16.90;87.90;;;18.43;74.18;102375.47;2015049;29;20053;-60
2022/07/11 03:35:40;;;;;;;0.30;0.30;;;16.90;87.80;;;18.43;74.07;102378.22;2015033;29;20057;-60
2022/07/11 03:36:07;;;;;;;0.20;0.20;;;17.00;87.90;;;18.44;73.94;102374.31;2013459;29;20064;-60
2022/07/11 03:37:11;;;;;;;0.20;0.20;;;16.90;87.80;;;18.43;74.35;102383.69;2003642;29;20046;-61
2022/07/11 03:38:18;;;;;;;0.20;0.20;;;17.00;87.90;;;18.42;74.10;102387.56;2002804;29;20096;-64
2022/07/11 03:39:22;;;;;;;0.20;0.20;;;17.00;87.90;;;18.42;74.23;102381.31;2014283;29;20057;-60
2022/07/11 03:40:24;;;;;;;0.10;0.10;;;17.00;88.00;;;18.40;74.39;102381.66;2015444;29;20112;-60
2022/07/11 03:41:28;;;;;;;0.15;0.15;;;17.00;88.00;;;18.39;74.66;102391.03;2015138;29;20060;-67
2022/07/11 03:42:33;;;;;;;0.20;0.20;;;16.90;87.90;;;18.38;74.40;102373.00;2014322;29;21078;-60
2022/07/11 03:43:38;;;;;;;0.20;0.20;;;17.00;88.00;;;18.38;74.71;102380.41;2015031;29;20140;-61
2022/07/11 03:44:40;;;;;;;0.20;0.20;;;16.90;88.00;;;18.35;74.53;102379.16;2014935;29;20113;-60
2022/07/11 03:45:44;;;;;;;0.20;0.20;;;16.90;88.00;;;18.36;74.67;102382.72;2007315;29;20057;-60
2022/07/11 03:46:47;;;;;;;0.10;0.10;;;16.90;88.80;;;18.37;74.88;102376.88;2007427;29;20077;-60
2022/07/11 03:47:51;;;;;;;0.20;0.20;;;16.90;88.30;;;18.39;74.65;102380.09;2014695;29;20441;-60
2022/07/11 03:48:54;;;;;;;0.13;0.13;;;16.90;88.60;;;18.39;74.54;102382.81;2013444;29;20065;-60
2022/07/11 03:49:57;;;;;;;0.20;0.20;;;17.00;88.30;;;18.42;74.40;102384.03;2015716;29;20411;-62
2022/07/11 03:51:00;;;;;;;0.20;0.20;;;16.90;88.30;;;18.42;74.35;102379.38;2007270;29;20561;-60
2022/07/11 03:52:04;;;;;;;0.20;0.20;;;17.00;88.30;;;18.46;74.55;102382.16;2007037;29;20124;-60
2022/07/11 03:53:07;;;;;;;0.20;0.20;;;17.00;88.30;;;18.47;74.66;102381.81;2014800;29;20540;-60
2022/07/11 03:54:10;;;;;;;0.20;0.20;;;17.00;88.40;;;18.49;74.36;102381.47;2015120;29;20088;-60
2022/07/11 03:55:13;;;;;;;0.20;0.20;;;17.00;88.40;;;18.45;74.39;102373.19;2015444;29;20053;-60
2022/07/11 03:56:20;;;;;;;0.20;0.20;;;17.00;88.30;;;18.43;74.82;102378.22;2015075;29;20091;-60
2022/07/11 03:57:23;;;;;;;0.10;0.10;;;16.90;88.10;;;18.43;74.70;102389.16;2015370;29;20049;-60
2022/07/11 03:58:26;;;;;;;0.20;0.20;;;17.00;88.20;;;18.44;74.47;102388.00;2014802;29;20124;-63
2022/07/11 03:59:30;;;;;;;0.20;0.20;;;17.00;88.30;;;18.44;74.44;102382.53;2014780;29;20056;-60
2022/07/11 04:00:34;;;;;;;0.28;0.28;;;17.00;88.20;;;18.44;74.56;102387.22;2015109;29;20486;-59
2022/07/11 04:01:37;;;;;;;0.20;0.20;;;17.00;88.30;;;18.44;74.39;102379.78;2015058;29;20052;-60
2022/07/11 04:02:41;;;;;;;0.20;0.20;;;16.90;88.30;;;18.44;74.39;102382.53;2016664;29;20390;-62
2022/07/11 04:03:44;;;;;;;0.20;0.20;;;17.00;88.30;;;18.46;74.53;102382.16;2006387;29;20537;-61
2022/07/11 04:04:48;;;;;;;0.20;0.20;;;17.00;88.40;;;18.46;74.59;102384.91;1997399;29;20069;-60
2022/07/11 04:05:51;;;;;;;0.20;0.20;;;17.00;88.40;;;18.49;74.50;102387.72;2005848;29;20160;-62
2022/07/11 04:06:55;;;;;;;0.20;0.20;;;17.00;88.40;;;18.50;74.27;102383.84;2015495;29;20063;-60
2022/07/11 04:07:58;;;;;;;0.20;0.20;;;17.00;88.20;;;18.51;74.13;102379.97;2015169;29;20078;-60
2022/07/11 04:09:05;;;;;;;0.20;0.20;;;17.00;88.10;;;18.48;nan;102379.88;2015257;29;20490;-62
2022/07/11 04:10:08;;;;;;;0.20;0.20;;;17.00;88.10;;;18.51;74.32;102377.22;2014703;29;20065;-60
2022/07/11 04:11:12;;;;;;;0.20;0.20;;;17.00;88.20;;;18.53;74.17;102382.34;2015208;29;20060;-60
2022/07/11 04:12:14;;;;;;;0.20;0.20;;;17.00;88.20;;;18.53;74.13;102383.16;2016087;29;20053;-60
2022/07/11 04:13:18;;;;;;;0.20;0.20;;;17.00;88.20;;;18.55;74.17;102386.28;2014254;29;20084;-60
2022/07/11 04:14:21;;;;;;;0.20;0.20;;;17.00;88.10;;;18.57;74.00;102388.66;2007765;29;20085;-61
2022/07/11 04:15:26;;;;;;;0.20;0.20;;;17.00;88.10;;;18.58;74.07;102385.59;2008344;29;20552;-60
2022/07/11 04:16:28;;;;;;;0.20;0.20;;;17.00;88.00;;;18.58;73.71;102385.59;2014133;29;20087;-60
2022/07/11 04:17:32;;;;;;;0.20;0.20;;;17.00;88.00;;;18.59;73.75;102380.91;2015178;29;20169;-60
2022/07/11 04:18:34;;;;;;;0.30;0.30;;;17.00;87.90;;;18.60;73.70;102388.75;2014065;29;20057;-61
2022/07/11 04:19:38;;;;;;;0.20;0.20;;;17.00;87.90;;;18.60;73.93;102385.25;2014429;29;20485;-61
2022/07/11 04:20:41;;;;;;;0.30;0.30;;;17.00;87.90;;;18.58;73.92;102382.88;2014235;29;20057;-60
2022/07/11 04:21:44;;;;;;;0.28;0.28;;;17.10;88.00;;;18.58;74.06;102382.88;2013721;29;20053;-61
2022/07/11 04:22:47;;;;;;;0.20;0.20;;;17.00;87.90;;;18.59;73.82;102378.19;2015294;29;20056;-60
2022/07/11 04:23:50;;;;;;;0.15;0.15;;;17.10;87.90;;;18.60;73.84;102383.28;2014206;29;20525;-61
2022/07/11 04:24:52;;;;;;;0.20;0.20;;;17.00;87.90;;;18.60;73.92;102380.53;2013616;29;20067;-61